sensor_id;sensor_type;location;lat;lon;timestamp;pressure;altitude;pressure_sealevel;temperature;humidity
75420;BME280;63998;52.488;13.428;2022-10-29T00:00:00;101456.06;;;16.89;67.67
75420;BME280;63998;52.488;13.428;2022-10-29T00:02:25;101466.56;;;16.87;67.84
75420;BME280;63998;52.488;13.428;2022-10-29T00:04:51;101465.69;;;16.88;67.61
75420;BME280;63998;52.488;13.428;2022-10-29T00:07:19;101477.91;;;16.93;67.42
75420;BME280;63998;52.488;13.428;2022-10-29T00:09:44;101489.31;;;16.88;67.87
75420;BME280;63998;52.488;13.428;2022-10-29T00:12:12;101481.44;;;16.88;67.57
75420;BME280;63998;52.488;13.428;2022-10-29T00:14:37;101479.63;;;16.94;67.54
75420;BME280;63998;52.488;13.428;2022-10-29T00:17:05;101475.28;;;16.91;67.53
75420;BME280;63998;52.488;13.428;2022-10-29T00:19:30;101479.66;;;16.91;67.74
75420;BME280;63998;52.488;13.428;2022-10-29T00:21:56;101484.03;;;16.90;67.32
75420;BME280;63998;52.488;13.428;2022-10-29T00:24:21;101486.72;;;16.85;67.70
75420;BME280;63998;52.488;13.428;2022-10-29T00:26:46;101481.47;;;16.85;67.66
75420;BME280;63998;52.488;13.428;2022-10-29T00:29:12;101486.81;;;16.79;67.73
75420;BME280;63998;52.488;13.428;2022-10-29T00:31:37;101488.53;;;16.80;67.64
75420;BME280;63998;52.488;13.428;2022-10-29T00:34:02;101492.91;;;16.80;68.09
75420;BME280;63998;52.488;13.428;2022-10-29T00:36:28;101501.66;;;16.79;67.71
75420;BME280;63998;52.488;13.428;2022-10-29T00:38:54;101506.06;;;16.78;67.87
75420;BME280;63998;52.488;13.428;2022-10-29T00:41:30;101507.78;;;16.79;67.91
75420;BME280;63998;52.488;13.428;2022-10-29T00:46:40;101520.84;;;16.84;67.80
75420;BME280;63998;52.488;13.428;2022-10-29T00:49:07;101524.31;;;16.87;67.49
75420;BME280;63998;52.488;13.428;2022-10-29T00:51:36;101524.25;;;16.92;67.87
75420;BME280;63998;52.488;13.428;2022-10-29T00:54:13;101516.31;;;16.97;67.76
75420;BME280;63998;52.488;13.428;2022-10-29T00:56:49;101515.41;;;16.99;67.38
75420;BME280;63998;52.488;13.428;2022-10-29T00:59:17;101512.78;;;17.01;67.59
75420;BME280;63998;52.488;13.428;2022-10-29T01:01:43;101523.25;;;17.04;67.33
75420;BME280;63998;52.488;13.428;2022-10-29T01:04:12;101510.97;;;17.06;67.55
75420;BME280;63998;52.488;13.428;2022-10-29T01:06:39;101509.19;;;17.08;67.42
75420;BME280;63998;52.488;13.428;2022-10-29T01:09:06;101508.28;;;17.09;67.45
75420;BME280;63998;52.488;13.428;2022-10-29T01:11:58;101498.63;;;17.12;67.91
75420;BME280;63998;52.488;13.428;2022-10-29T01:14:48;101505.59;;;17.15;67.69
75420;BME280;63998;52.488;13.428;2022-10-29T01:17:30;101512.53;;;17.19;67.26
75420;BME280;63998;52.488;13.428;2022-10-29T01:28:25;101507.28;;;17.19;67.75
75420;BME280;63998;52.488;13.428;2022-10-29T01:33:39;101512.63;;;17.13;67.99
75420;BME280;63998;52.488;13.428;2022-10-29T01:36:21;101515.28;;;17.08;68.40
75420;BME280;63998;52.488;13.428;2022-10-29T01:38:56;101517.03;;;17.09;68.29
75420;BME280;63998;52.488;13.428;2022-10-29T01:41:41;101510.88;;;17.12;68.52
75420;BME280;63998;52.488;13.428;2022-10-29T01:44:27;101515.28;;;17.10;68.56
75420;BME280;63998;52.488;13.428;2022-10-29T01:47:03;101519.69;;;17.08;68.49
75420;BME280;63998;52.488;13.428;2022-10-29T01:49:38;101522.28;;;17.09;68.91
75420;BME280;63998;52.488;13.428;2022-10-29T01:52:06;101520.53;;;17.08;68.92
75420;BME280;63998;52.488;13.428;2022-10-29T01:54:33;101527.63;;;17.05;68.72
75420;BME280;63998;52.488;13.428;2022-10-29T01:57:02;101532.06;;;16.97;69.32
75420;BME280;63998;52.488;13.428;2022-10-29T01:59:30;101526.88;;;16.94;69.52
75420;BME280;63998;52.488;13.428;2022-10-29T02:02:00;101533.88;;;16.92;69.31
75420;BME280;63998;52.488;13.428;2022-10-29T02:04:47;101539.13;;;16.92;69.45
75420;BME280;63998;52.488;13.428;2022-10-29T02:07:28;101537.44;;;16.86;69.56
75420;BME280;63998;52.488;13.428;2022-10-29T02:13:30;101539.13;;;16.92;69.79
75420;BME280;63998;52.488;13.428;2022-10-29T02:15:57;101541.81;;;16.87;70.01
75420;BME280;63998;52.488;13.428;2022-10-29T02:18:24;101542.69;;;16.84;70.42
75420;BME280;63998;52.488;13.428;2022-10-29T02:20:49;101541.03;;;16.77;70.68
75420;BME280;63998;52.488;13.428;2022-10-29T02:23:15;101548.06;;;16.72;70.81
75420;BME280;63998;52.488;13.428;2022-10-29T02:25:44;101542.91;;;16.66;71.33
75420;BME280;63998;52.488;13.428;2022-10-29T02:28:09;101550.78;;;16.66;71.04
75420;BME280;63998;52.488;13.428;2022-10-29T02:30:34;101556.94;;;16.62;71.60
75420;BME280;63998;52.488;13.428;2022-10-29T02:33:02;101556.91;;;16.61;71.43
75420;BME280;63998;52.488;13.428;2022-10-29T02:35:27;101563.03;;;16.58;72.02
75420;BME280;63998;52.488;13.428;2022-10-29T02:37:55;101564.84;;;16.56;71.83
75420;BME280;63998;52.488;13.428;2022-10-29T02:40:20;101570.13;;;16.48;72.37
75420;BME280;63998;52.488;13.428;2022-10-29T02:42:46;101576.31;;;16.43;72.53
75420;BME280;63998;52.488;13.428;2022-10-29T02:45:11;101574.59;;;16.39;72.76
75420;BME280;63998;52.488;13.428;2022-10-29T02:47:36;101579.88;;;16.36;72.47
75420;BME280;63998;52.488;13.428;2022-10-29T02:50:07;101584.25;;;16.32;73.06
75420;BME280;63998;52.488;13.428;2022-10-29T02:52:33;101579.00;;;16.32;72.96
75420;BME280;63998;52.488;13.428;2022-10-29T02:55:00;101579.09;;;16.25;73.08
75420;BME280;63998;52.488;13.428;2022-10-29T02:57:26;101587.81;;;16.27;73.21
75420;BME280;63998;52.488;13.428;2022-10-29T02:59:51;101588.69;;;16.26;73.18
75420;BME280;63998;52.488;13.428;2022-10-29T03:02:18;101571.22;;;16.25;73.06
75420;BME280;63998;52.488;13.428;2022-10-29T03:04:44;101575.59;;;16.24;73.36
75420;BME280;63998;52.488;13.428;2022-10-29T03:07:09;101572.13;;;16.21;73.57
75420;BME280;63998;52.488;13.428;2022-10-29T03:09:35;101566.06;;;16.17;73.46
75420;BME280;63998;52.488;13.428;2022-10-29T03:12:00;101571.31;;;16.15;73.81
75420;BME280;63998;52.488;13.428;2022-10-29T03:14:28;101573.03;;;16.16;73.75
75420;BME280;63998;52.488;13.428;2022-10-29T03:16:53;101578.31;;;16.10;73.75
75420;BME280;63998;52.488;13.428;2022-10-29T03:19:19;101583.63;;;16.04;73.80
75420;BME280;63998;52.488;13.428;2022-10-29T03:21:44;101573.16;;;16.01;73.96
75420;BME280;63998;52.488;13.428;2022-10-29T03:24:10;101574.91;;;15.98;74.39
75420;BME280;63998;52.488;13.428;2022-10-29T03:26:35;101566.22;;;15.94;74.56
75420;BME280;63998;52.488;13.428;2022-10-29T03:29:03;101566.22;;;15.94;74.67
75420;BME280;63998;52.488;13.428;2022-10-29T03:31:28;101567.09;;;15.95;74.43
75420;BME280;63998;52.488;13.428;2022-10-29T03:33:54;101567.94;;;15.95;74.64
75420;BME280;63998;52.488;13.428;2022-10-29T03:36:19;101576.72;;;15.94;74.43
75420;BME280;63998;52.488;13.428;2022-10-29T03:38:46;101573.22;;;15.92;74.39
75420;BME280;63998;52.488;13.428;2022-10-29T03:41:12;101578.47;;;15.89;74.71
75420;BME280;63998;52.488;13.428;2022-10-29T03:43:38;101578.47;;;15.89;74.89
75420;BME280;63998;52.488;13.428;2022-10-29T03:46:04;101584.59;;;15.88;75.11
75420;BME280;63998;52.488;13.428;2022-10-29T03:48:30;101590.72;;;15.84;75.14
75420;BME280;63998;52.488;13.428;2022-10-29T03:51:04;101590.75;;;15.81;75.51
75420;BME280;63998;52.488;13.428;2022-10-29T03:53:33;101584.66;;;15.76;75.50
75420;BME280;63998;52.488;13.428;2022-10-29T03:55:59;101582.06;;;15.73;75.83
75420;BME280;63998;52.488;13.428;2022-10-29T03:58:25;101585.59;;;15.69;75.62
75420;BME280;63998;52.488;13.428;2022-10-29T04:03:19;101589.03;;;15.71;75.86
75420;BME280;63998;52.488;13.428;2022-10-29T04:05:44;101591.66;;;15.71;75.69
75420;BME280;63998;52.488;13.428;2022-10-29T04:08:09;101596.94;;;15.68;76.09
75420;BME280;63998;52.488;13.428;2022-10-29T04:10:37;101592.59;;;15.67;76.12
75420;BME280;63998;52.488;13.428;2022-10-29T04:13:04;101603.94;;;15.63;76.09
75420;BME280;63998;52.488;13.428;2022-10-29T04:15:32;101600.47;;;15.61;76.49
75420;BME280;63998;52.488;13.428;2022-10-29T04:17:59;101597.84;;;15.61;76.39
75420;BME280;63998;52.488;13.428;2022-10-29T04:20:27;101604.81;;;15.59;76.52
75420;BME280;63998;52.488;13.428;2022-10-29T04:22:55;101605.75;;;15.55;76.70
75420;BME280;63998;52.488;13.428;2022-10-29T04:25:22;101611.81;;;15.51;76.90
75420;BME280;63998;52.488;13.428;2022-10-29T04:27:53;101601.38;;;15.57;76.51
75420;BME280;63998;52.488;13.428;2022-10-29T04:30:18;101613.59;;;15.55;76.56
75420;BME280;63998;52.488;13.428;2022-10-29T04:32:44;101606.59;;;15.54;76.56
75420;BME280;63998;52.488;13.428;2022-10-29T04:35:09;101596.97;;;15.54;76.27
75420;BME280;63998;52.488;13.428;2022-10-29T04:37:34;101601.34;;;15.60;76.53
75420;BME280;63998;52.488;13.428;2022-10-29T04:39:59;101594.34;;;15.63;76.00
75420;BME280;63998;52.488;13.428;2022-10-29T04:42:25;101590.84;;;15.60;75.86
75420;BME280;63998;52.488;13.428;2022-10-29T04:44:50;101589.13;;;15.59;76.04
75420;BME280;63998;52.488;13.428;2022-10-29T04:47:15;101592.66;;;15.55;76.20
75420;BME280;63998;52.488;13.428;2022-10-29T04:49:41;101590.91;;;15.57;76.04
75420;BME280;63998;52.488;13.428;2022-10-29T04:52:06;101584.75;;;15.53;75.80
75420;BME280;63998;52.488;13.428;2022-10-29T04:54:31;101581.28;;;15.54;75.95
75420;BME280;63998;52.488;13.428;2022-10-29T04:56:59;101575.19;;;15.55;75.83
75420;BME280;63998;52.488;13.428;2022-10-29T04:59:24;101579.50;;;15.59;75.93
75420;BME280;63998;52.488;13.428;2022-10-29T05:01:50;101604.84;;;15.53;76.05
75420;BME280;63998;52.488;13.428;2022-10-29T05:04:15;101610.94;;;15.50;76.22
75420;BME280;63998;52.488;13.428;2022-10-29T05:06:43;101611.00;;;15.39;76.64
75420;BME280;63998;52.488;13.428;2022-10-29T05:09:10;101608.38;;;15.36;76.54
75420;BME280;63998;52.488;13.428;2022-10-29T05:11:36;101611.91;;;15.32;76.66
75420;BME280;63998;52.488;13.428;2022-10-29T05:14:01;101609.25;;;15.34;77.01
75420;BME280;63998;52.488;13.428;2022-10-29T05:16:26;101614.53;;;15.29;77.03
75420;BME280;63998;52.488;13.428;2022-10-29T05:18:54;101611.91;;;15.26;77.13
75420;BME280;63998;52.488;13.428;2022-10-29T05:21:20;101612.84;;;15.18;77.26
75420;BME280;63998;52.488;13.428;2022-10-29T05:23:48;101625.91;;;15.13;77.44
75420;BME280;63998;52.488;13.428;2022-10-29T05:26:13;101621.59;;;15.07;77.77
75420;BME280;63998;52.488;13.428;2022-10-29T05:28:41;101615.47;;;15.04;78.06
75420;BME280;63998;52.488;13.428;2022-10-29T05:31:08;101617.22;;;15.02;77.89
75420;BME280;63998;52.488;13.428;2022-10-29T05:33:34;101630.31;;;14.99;78.13
75420;BME280;63998;52.488;13.428;2022-10-29T05:35:59;101632.94;;;14.96;78.37
75420;BME280;63998;52.488;13.428;2022-10-29T05:38:25;101629.44;;;14.88;78.70
75420;BME280;63998;52.488;13.428;2022-10-29T05:40:50;101622.47;;;14.90;78.78
75420;BME280;63998;52.488;13.428;2022-10-29T05:43:16;101619.88;;;14.91;78.70
75420;BME280;63998;52.488;13.428;2022-10-29T05:45:44;101610.28;;;14.89;78.71
75420;BME280;63998;52.488;13.428;2022-10-29T05:48:14;101608.53;;;14.89;78.80
75420;BME280;63998;52.488;13.428;2022-10-29T05:50:42;101606.78;;;14.87;78.83
75420;BME280;63998;52.488;13.428;2022-10-29T05:53:12;101591.97;;;14.86;78.89
75420;BME280;63998;52.488;13.428;2022-10-29T05:55:39;101591.09;;;14.87;78.55
75420;BME280;63998;52.488;13.428;2022-10-29T05:58:07;101587.59;;;14.85;78.83
75420;BME280;63998;52.488;13.428;2022-10-29T06:00:35;101590.25;;;14.80;78.98
75420;BME280;63998;52.488;13.428;2022-10-29T06:03:01;101601.56;;;14.78;79.17
75420;BME280;63998;52.488;13.428;2022-10-29T06:05:26;101607.66;;;14.73;79.43
75420;BME280;63998;52.488;13.428;2022-10-29T06:07:59;101618.16;;;14.63;79.49
75420;BME280;63998;52.488;13.428;2022-10-29T06:10:28;101612.06;;;14.56;79.90
75420;BME280;63998;52.488;13.428;2022-10-29T06:12:53;101613.78;;;14.51;80.29
75420;BME280;63998;52.488;13.428;2022-10-29T06:15:21;101631.25;;;14.46;80.46
75420;BME280;63998;52.488;13.428;2022-10-29T06:17:47;101626.88;;;14.41;80.74
75420;BME280;63998;52.488;13.428;2022-10-29T06:20:14;101625.13;;;14.43;81.07
75420;BME280;63998;52.488;13.428;2022-10-29T06:22:40;101619.91;;;14.46;80.91
75420;BME280;63998;52.488;13.428;2022-10-29T06:25:06;101617.28;;;14.47;80.92
75420;BME280;63998;52.488;13.428;2022-10-29T06:27:31;101619.03;;;14.51;80.88
75420;BME280;63998;52.488;13.428;2022-10-29T06:29:59;101628.63;;;14.57;80.74
75420;BME280;63998;52.488;13.428;2022-10-29T06:32:24;101628.59;;;14.60;80.48
75420;BME280;63998;52.488;13.428;2022-10-29T06:34:49;101634.72;;;14.63;80.49
75420;BME280;63998;52.488;13.428;2022-10-29T06:37:15;101638.22;;;14.68;80.30
75420;BME280;63998;52.488;13.428;2022-10-29T06:39:42;101641.69;;;14.67;80.33
75420;BME280;63998;52.488;13.428;2022-10-29T06:42:08;101641.69;;;14.67;80.18
75420;BME280;63998;52.488;13.428;2022-10-29T06:44:33;101645.19;;;14.66;80.22
75420;BME280;63998;52.488;13.428;2022-10-29T06:47:01;101648.66;;;14.65;80.35
75420;BME280;63998;52.488;13.428;2022-10-29T06:49:26;101646.94;;;14.70;80.35
75420;BME280;63998;52.488;13.428;2022-10-29T06:51:51;101639.94;;;14.77;80.01
75420;BME280;63998;52.488;13.428;2022-10-29T06:54:17;101648.66;;;14.81;80.02
75420;BME280;63998;52.488;13.428;2022-10-29T06:56:42;101645.16;;;14.82;80.06
75420;BME280;63998;52.488;13.428;2022-10-29T06:59:07;101652.16;;;14.83;80.28
75420;BME280;63998;52.488;13.428;2022-10-29T07:01:33;101652.13;;;14.89;79.84
75420;BME280;63998;52.488;13.428;2022-10-29T07:03:58;101665.22;;;14.89;79.91
75420;BME280;63998;52.488;13.428;2022-10-29T07:06:27;101656.50;;;14.90;79.96
75420;BME280;63998;52.488;13.428;2022-10-29T07:08:55;101659.09;;;14.90;79.95
75420;BME280;63998;52.488;13.428;2022-10-29T07:11:23;101657.38;;;14.95;80.06
75420;BME280;63998;52.488;13.428;2022-10-29T07:13:48;101650.38;;;14.97;79.71
75420;BME280;63998;52.488;13.428;2022-10-29T07:16:13;101652.09;;;15.01;80.04
75420;BME280;63998;52.488;13.428;2022-10-29T07:18:38;101652.97;;;15.01;80.01
75420;BME280;63998;52.488;13.428;2022-10-29T07:21:04;101644.22;;;15.12;79.73
75420;BME280;63998;52.488;13.428;2022-10-29T07:23:34;101655.56;;;15.12;79.52
75420;BME280;63998;52.488;13.428;2022-10-29T07:25:59;101659.06;;;15.16;79.43
75420;BME280;63998;52.488;13.428;2022-10-29T07:28:26;101652.09;;;15.16;79.37
75420;BME280;63998;52.488;13.428;2022-10-29T07:30:58;101659.03;;;15.25;79.28
75420;BME280;63998;52.488;13.428;2022-10-29T07:33:24;101664.28;;;15.29;79.22
75420;BME280;63998;52.488;13.428;2022-10-29T07:35:49;101665.97;;;15.36;79.00
75420;BME280;63998;52.488;13.428;2022-10-29T07:38:15;101674.72;;;15.41;78.91
75420;BME280;63998;52.488;13.428;2022-10-29T07:40:49;101676.41;;;15.49;78.64
75420;BME280;63998;52.488;13.428;2022-10-29T07:43:18;101683.41;;;15.53;78.51
75420;BME280;63998;52.488;13.428;2022-10-29T07:45:45;101676.44;;;15.58;78.17
75420;BME280;63998;52.488;13.428;2022-10-29T07:48:11;101677.28;;;15.61;78.03
75420;BME280;63998;52.488;13.428;2022-10-29T07:50:37;101681.63;;;15.67;77.71
75420;BME280;63998;52.488;13.428;2022-10-29T07:53:04;101679.84;;;15.72;77.69
75420;BME280;63998;52.488;13.428;2022-10-29T07:55:30;101686.84;;;15.76;77.59
75420;BME280;63998;52.488;13.428;2022-10-29T07:57:56;101688.53;;;15.86;77.20
75420;BME280;63998;52.488;13.428;2022-10-29T08:00:25;101690.25;;;15.90;76.92
75420;BME280;63998;52.488;13.428;2022-10-29T08:02:52;101690.22;;;15.99;76.77
75420;BME280;63998;52.488;13.428;2022-10-29T08:05:20;101690.16;;;16.08;76.31
75420;BME280;63998;52.488;13.428;2022-10-29T08:07:45;101682.34;;;16.07;76.28
75420;BME280;63998;52.488;13.428;2022-10-29T08:10:11;101690.16;;;16.11;76.49
75420;BME280;63998;52.488;13.428;2022-10-29T08:12:36;101686.66;;;16.12;76.44
75420;BME280;63998;52.488;13.428;2022-10-29T08:15:02;101690.06;;;16.27;76.15
75420;BME280;63998;52.488;13.428;2022-10-29T08:17:30;101690.06;;;16.30;75.75
75420;BME280;63998;52.488;13.428;2022-10-29T08:19:55;101685.59;;;16.39;75.78
75420;BME280;63998;52.488;13.428;2022-10-29T08:22:21;101691.72;;;16.43;74.93
75420;BME280;63998;52.488;13.428;2022-10-29T08:24:46;101692.53;;;16.49;75.18
75420;BME280;63998;52.488;13.428;2022-10-29T08:27:12;101702.06;;;16.61;75.08
75420;BME280;63998;52.488;13.428;2022-10-29T08:29:37;101698.50;;;16.71;74.28
75420;BME280;63998;52.488;13.428;2022-10-29T08:32:02;101690.53;;;16.82;74.28
75420;BME280;63998;52.488;13.428;2022-10-29T08:34:28;101684.38;;;16.87;73.64
75420;BME280;63998;52.488;13.428;2022-10-29T08:36:55;101692.19;;;16.95;73.88
75420;BME280;63998;52.488;13.428;2022-10-29T08:39:21;101683.41;;;16.96;73.17
75420;BME280;63998;52.488;13.428;2022-10-29T08:42:29;101682.50;;;17.05;73.24
75420;BME280;63998;52.488;13.428;2022-10-29T08:47:41;101698.16;;;17.14;72.70
75420;BME280;63998;52.488;13.428;2022-10-29T08:50:32;101689.25;;;17.27;72.76
75420;BME280;63998;52.488;13.428;2022-10-29T08:53:16;101682.25;;;17.29;72.26
75420;BME280;63998;52.488;13.428;2022-10-29T08:55:43;101690.91;;;17.34;72.54
75420;BME280;63998;52.488;13.428;2022-10-29T09:00:45;101689.00;;;17.51;71.75
75420;BME280;63998;52.488;13.428;2022-10-29T09:03:13;101687.22;;;17.53;71.96
75420;BME280;63998;52.488;13.428;2022-10-29T09:05:49;101692.41;;;17.56;71.36
75420;BME280;63998;52.488;13.428;2022-10-29T09:08:25;101695.91;;;17.58;71.34
75420;BME280;63998;52.488;13.428;2022-10-29T09:10:55;101697.56;;;17.69;71.18
75420;BME280;63998;52.488;13.428;2022-10-29T09:19:19;101695.56;;;17.89;70.74
75420;BME280;63998;52.488;13.428;2022-10-29T09:34:03;101703.88;;;18.21;69.40
75420;BME280;63998;52.488;13.428;2022-10-29T09:36:30;101708.09;;;18.33;69.07
75420;BME280;63998;52.488;13.428;2022-10-29T09:39:00;101705.41;;;18.38;68.76
75420;BME280;63998;52.488;13.428;2022-10-29T09:41:31;101701.88;;;18.39;68.71
75420;BME280;63998;52.488;13.428;2022-10-29T09:44:22;101694.78;;;18.44;68.33
75420;BME280;63998;52.488;13.428;2022-10-29T09:47:12;101702.53;;;18.54;68.04
75420;BME280;63998;52.488;13.428;2022-10-29T09:49:56;101692.84;;;18.58;67.63
75420;BME280;63998;52.488;13.428;2022-10-29T09:52:29;101683.09;;;18.64;67.53
75420;BME280;63998;52.488;13.428;2022-10-29T09:54:58;101685.63;;;18.69;67.41
75420;BME280;63998;52.488;13.428;2022-10-29T09:57:26;101682.88;;;18.78;67.21
75420;BME280;63998;52.488;13.428;2022-10-29T09:59:58;101676.69;;;18.79;67.19
75420;BME280;63998;52.488;13.428;2022-10-29T10:02:36;101676.69;;;18.79;66.85
75420;BME280;63998;52.488;13.428;2022-10-29T10:07:40;101665.19;;;18.85;66.58
75420;BME280;63998;52.488;13.428;2022-10-29T10:10:22;101669.44;;;18.93;66.78
75420;BME280;63998;52.488;13.428;2022-10-29T10:12:48;101664.13;;;18.96;66.37
75420;BME280;63998;52.488;13.428;2022-10-29T10:15:29;101667.81;;;18.86;66.20
75420;BME280;63998;52.488;13.428;2022-10-29T10:17:59;101660.19;;;18.70;67.12
75420;BME280;63998;52.488;13.428;2022-10-29T10:22:54;101660.84;;;18.82;67.09
75420;BME280;63998;52.488;13.428;2022-10-29T10:25:36;101656.28;;;18.92;66.53
75420;BME280;63998;52.488;13.428;2022-10-29T10:28:20;101657.97;;;18.96;66.25
75420;BME280;63998;52.488;13.428;2022-10-29T10:33:36;101650.75;;;19.07;65.54
75420;BME280;63998;52.488;13.428;2022-10-29T10:36:08;101649.78;;;19.13;65.29
75420;BME280;63998;52.488;13.428;2022-10-29T10:38:39;101646.47;;;19.01;65.29
75420;BME280;63998;52.488;13.428;2022-10-29T10:41:07;101643.19;;;18.90;65.64
75420;BME280;63998;52.488;13.428;2022-10-29T10:43:34;101639.56;;;18.94;65.77
75420;BME280;63998;52.488;13.428;2022-10-29T10:46:04;101632.34;;;19.06;65.52
75420;BME280;63998;52.488;13.428;2022-10-29T10:48:32;101647.00;;;19.19;65.07
75420;BME280;63998;52.488;13.428;2022-10-29T10:51:22;101640.59;;;19.32;64.72
75420;BME280;63998;52.488;13.428;2022-10-29T10:53:49;101652.03;;;19.32;64.28
75420;BME280;63998;52.488;13.428;2022-10-29T10:56:24;101649.09;;;19.48;64.20
75420;BME280;63998;52.488;13.428;2022-10-29T10:59:08;101650.38;;;19.71;63.81
75420;BME280;63998;52.488;13.428;2022-10-29T11:01:41;101643.09;;;19.83;63.11
75420;BME280;63998;52.488;13.428;2022-10-29T11:06:40;101645.97;;;20.12;62.19
75420;BME280;63998;52.488;13.428;2022-10-29T11:09:23;101649.88;;;20.33;61.88
75420;BME280;63998;52.488;13.428;2022-10-29T11:11:57;101646.38;;;20.31;61.53
75420;BME280;63998;52.488;13.428;2022-10-29T11:14:33;101645.34;;;20.39;60.93
75420;BME280;63998;52.488;13.428;2022-10-29T11:17:03;101627.16;;;20.63;60.89
75420;BME280;63998;52.488;13.428;2022-10-29T11:19:46;101625.88;;;20.77;60.21
75420;BME280;63998;52.488;13.428;2022-10-29T11:22:23;101621.56;;;20.75;59.61
75420;BME280;63998;52.488;13.428;2022-10-29T11:24:56;101613.97;;;20.95;59.53
75420;BME280;63998;52.488;13.428;2022-10-29T11:27:48;101613.16;;;20.93;59.28
75420;BME280;63998;52.488;13.428;2022-10-29T11:30:18;101607.81;;;20.62;59.87
75420;BME280;63998;52.488;13.428;2022-10-29T11:33:04;101602.81;;;20.52;60.27
75420;BME280;63998;52.488;13.428;2022-10-29T11:35:48;101595.81;;;20.51;60.50
75420;BME280;63998;52.488;13.428;2022-10-29T11:38:19;101592.09;;;20.58;60.44
75420;BME280;63998;52.488;13.428;2022-10-29T11:41:06;101592.72;;;20.67;60.35
75420;BME280;63998;52.488;13.428;2022-10-29T11:43:36;101595.38;;;20.66;59.75
75420;BME280;63998;52.488;13.428;2022-10-29T11:46:36;101593.91;;;20.56;59.92
75420;BME280;63998;52.488;13.428;2022-10-29T11:56:58;101585.00;;;21.25;58.60
75420;BME280;63998;52.488;13.428;2022-10-29T12:02:09;101565.75;;;21.50;57.81
75420;BME280;63998;52.488;13.428;2022-10-29T12:04:46;101568.69;;;21.40;58.00
75420;BME280;63998;52.488;13.428;2022-10-29T12:10:37;101575.63;;;21.44;57.49
75420;BME280;63998;52.488;13.428;2022-10-29T12:13:18;101561.44;;;21.76;57.32
75420;BME280;63998;52.488;13.428;2022-10-29T12:16:00;101564.88;;;21.78;56.73
75420;BME280;63998;52.488;13.428;2022-10-29T12:18:49;101549.34;;;21.95;56.31
75420;BME280;63998;52.488;13.428;2022-10-29T12:27:02;101552.13;;;21.91;56.51
75420;BME280;63998;52.488;13.428;2022-10-29T12:29:39;101551.34;;;21.61;57.37
75420;BME280;63998;52.488;13.428;2022-10-29T12:32:21;101559.84;;;21.41;58.10
75420;BME280;63998;52.488;13.428;2022-10-29T12:34:58;101556.75;;;21.56;57.89
75420;BME280;63998;52.488;13.428;2022-10-29T12:40:21;101544.78;;;21.72;57.83
75420;BME280;63998;52.488;13.428;2022-10-29T12:42:51;101549.69;;;21.57;57.63
75420;BME280;63998;52.488;13.428;2022-10-29T12:45:45;101548.97;;;21.79;57.60
75420;BME280;63998;52.488;13.428;2022-10-29T12:48:14;101552.63;;;22.03;57.07
75420;BME280;63998;52.488;13.428;2022-10-29T12:50:52;101535.25;;;22.23;56.76
75420;BME280;63998;52.488;13.428;2022-10-29T12:56:26;101513.22;;;22.47;55.92
75420;BME280;63998;52.488;13.428;2022-10-29T12:58:57;101520.97;;;22.78;55.29
75420;BME280;63998;52.488;13.428;2022-10-29T13:09:25;101504.88;;;23.07;54.06
75420;BME280;63998;52.488;13.428;2022-10-29T13:11:59;101491.81;;;23.24;53.79
75420;BME280;63998;52.488;13.428;2022-10-29T13:17:05;101498.50;;;23.58;52.63
75420;BME280;63998;52.488;13.428;2022-10-29T13:19:36;101491.00;;;23.24;53.09
75420;BME280;63998;52.488;13.428;2022-10-29T13:22:29;101483.25;;;23.63;52.06
75420;BME280;63998;52.488;13.428;2022-10-29T13:27:55;101487.91;;;22.88;54.16
75420;BME280;63998;52.488;13.428;2022-10-29T13:30:23;101482.31;;;22.47;55.02
75420;BME280;63998;52.488;13.428;2022-10-29T13:32:55;101487.44;;;22.27;55.25
75420;BME280;63998;52.488;13.428;2022-10-29T13:37:49;101491.28;;;21.91;56.37
75420;BME280;63998;52.488;13.428;2022-10-29T13:43:00;101489.38;;;21.96;56.07
75420;BME280;63998;52.488;13.428;2022-10-29T13:45:27;101488.63;;;21.64;56.92
75420;BME280;63998;52.488;13.428;2022-10-29T13:48:04;101487.47;;;21.45;57.91
75420;BME280;63998;52.488;13.428;2022-10-29T13:50:34;101485.19;;;21.62;57.83
75420;BME280;63998;52.488;13.428;2022-10-29T13:53:02;101489.97;;;21.77;57.49
75420;BME280;63998;52.488;13.428;2022-10-29T13:55:31;101484.00;;;21.99;56.82
75420;BME280;63998;52.488;13.428;2022-10-29T13:58:05;101476.03;;;21.72;57.35
75420;BME280;63998;52.488;13.428;2022-10-29T14:00:36;101474.66;;;21.61;58.20
75420;BME280;63998;52.488;13.428;2022-10-29T14:03:09;101473.88;;;21.57;58.19
75420;BME280;63998;52.488;13.428;2022-10-29T14:05:45;101467.28;;;21.70;58.31
75420;BME280;63998;52.488;13.428;2022-10-29T14:11:13;101479.59;;;21.99;57.13
75420;BME280;63998;52.488;13.428;2022-10-29T14:13:49;101475.41;;;21.91;57.45
75420;BME280;63998;52.488;13.428;2022-10-29T14:16:22;101481.09;;;21.78;57.82
75420;BME280;63998;52.488;13.428;2022-10-29T14:18:49;101473.06;;;21.55;58.32
75420;BME280;63998;52.488;13.428;2022-10-29T14:21:26;101475.09;;;21.47;58.79
75420;BME280;63998;52.488;13.428;2022-10-29T14:24:01;101470.09;;;21.38;58.97
75420;BME280;63998;52.488;13.428;2022-10-29T14:26:31;101468.63;;;21.28;59.34
75420;BME280;63998;52.488;13.428;2022-10-29T14:29:30;101474.25;;;21.15;59.39
75420;BME280;63998;52.488;13.428;2022-10-29T14:32:12;101473.84;;;21.00;60.18
75420;BME280;63998;52.488;13.428;2022-10-29T14:34:38;101480.25;;;20.91;60.36